Time;durP1;ratioP1;P1;durP2;ratioP2;P2;SDS_P1;SDS_P2;PMS_P1;PMS_P2;Temp;Humidity;BMP_temperature;BMP_pressure;BME280_temperature;BME280_humidity;BME280_pressure;Samples;Min_cycle;Max_cycle;Signal;HPM_P1;HPM_P2
2023/06/17 00:02:15;;;;;;;4.63;2.20;;;17.00;82.30;;;;;;5050599;28;20303;-53
2023/06/17 00:04:41;;;;;;;4.82;2.25;;;17.00;82.50;;;;;;5051111;28;20040;-54
2023/06/17 00:07:07;;;;;;;3.65;2.13;;;17.00;82.70;;;;;;5050534;28;20497;-52
2023/06/17 00:09:32;;;;;;;5.15;2.15;;;17.00;82.10;;;;;;5051028;28;20105;-51
2023/06/17 00:11:58;;;;;;;6.63;2.45;;;16.90;82.90;;;;;;5050664;28;20033;-51
2023/06/17 00:14:24;;;;;;;3.60;2.40;;;16.90;83.30;;;;;;5051163;28;20029;-50
2023/06/17 00:16:50;;;;;;;3.83;2.00;;;16.90;82.30;;;;;;5049364;28;20025;-51
2023/06/17 00:19:16;;;;;;;4.43;2.28;;;16.90;82.50;;;;;;5050987;28;20033;-51
2023/06/17 00:21:43;;;;;;;4.32;2.60;;;16.90;82.70;;;;;;5050674;28;20539;-51
2023/06/17 00:24:12;;;;;;;4.93;2.50;;;16.80;82.30;;;;;;5050937;28;20033;-54
2023/06/17 00:26:38;;;;;;;5.00;2.60;;;16.80;82.30;;;;;;5050776;28;20033;-52
2023/06/17 00:29:05;;;;;;;3.65;2.30;;;16.80;82.80;;;;;;5049449;28;20037;-51
2023/06/17 00:31:31;;;;;;;5.25;2.67;;;16.70;83.60;;;;;;5049330;28;20090;-51
2023/06/17 00:33:57;;;;;;;5.20;2.55;;;16.70;84.50;;;;;;5049539;28;20040;-49
2023/06/17 00:36:23;;;;;;;4.68;2.60;;;16.70;85.20;;;;;;5049526;28;20398;-53
2023/06/17 00:38:50;;;;;;;4.18;2.45;;;16.60;86.00;;;;;;5051094;28;20047;-52
2023/06/17 00:41:15;;;;;;;3.92;2.20;;;16.50;86.90;;;;;;5053398;28;20033;-52
2023/06/17 00:43:42;;;;;;;4.13;2.13;;;16.30;87.70;;;;;;5053216;28;20084;-52
2023/06/17 00:46:09;;;;;;;3.88;2.03;;;16.20;88.20;;;;;;5054712;28;20021;-55
2023/06/17 00:48:35;;;;;;;3.70;2.13;;;16.10;89.00;;;;;;5054475;28;20037;-49
2023/06/17 00:51:04;;;;;;;4.72;2.05;;;16.00;89.60;;;;;;5054799;28;20388;-51
2023/06/17 00:53:31;;;;;;;3.67;2.10;;;15.90;90.20;;;;;;5054480;28;20112;-52
2023/06/17 00:55:58;;;;;;;5.18;2.20;;;15.90;90.50;;;;;;5053362;28;20511;-51
2023/06/17 00:58:26;;;;;;;5.50;2.38;;;15.80;90.70;;;;;;5052832;28;20039;-50
2023/06/17 01:00:51;;;;;;;4.10;2.38;;;15.70;90.80;;;;;;5052793;28;20033;-51
2023/06/17 01:03:17;;;;;;;5.03;2.70;;;15.70;91.10;;;;;;5054136;28;20374;-51
2023/06/17 01:05:45;;;;;;;3.58;2.08;;;15.60;91.30;;;;;;5052674;28;20025;-53
2023/06/17 01:08:28;;;;;;;7.65;2.40;;;15.60;91.50;;;;;;5054467;28;20040;-49
2023/06/17 01:11:06;;;;;;;4.55;2.30;;;15.50;91.80;;;;;;5052460;28;20481;-54
2023/06/17 01:13:34;;;;;;;5.60;2.38;;;15.50;91.90;;;;;;5054099;28;20029;-52
2023/06/17 01:16:01;;;;;;;4.65;2.58;;;15.40;92.20;;;;;;5054013;28;20033;-52
2023/06/17 01:18:29;;;;;;;5.53;2.05;;;15.40;92.40;;;;;;5052736;28;20094;-53
2023/06/17 01:20:56;;;;;;;4.63;2.10;;;15.30;92.30;;;;;;5052724;28;20464;-50
2023/06/17 01:23:34;;;;;;;3.20;2.28;;;15.30;92.50;;;;;;5052988;28;20036;-54
2023/06/17 01:26:01;;;;;;;4.13;1.90;;;15.30;92.60;;;;;;5054376;28;20462;-54
2023/06/17 01:28:29;;;;;;;4.07;2.00;;;15.20;92.80;;;;;;5054358;28;20037;-54
2023/06/17 01:30:56;;;;;;;5.40;2.70;;;15.10;93.00;;;;;;5054102;28;20120;-54
2023/06/17 01:33:26;;;;;;;4.15;2.08;;;15.00;93.10;;;;;;5054421;28;20107;-51
2023/06/17 01:35:56;;;;;;;4.13;2.05;;;15.00;93.30;;;;;;5054398;28;20040;-52
2023/06/17 01:38:41;;;;;;;3.50;1.95;;;14.90;93.60;;;;;;5052802;28;20040;-52
2023/06/17 01:41:29;;;;;;;4.72;2.08;;;14.90;93.50;;;;;;5052819;28;20033;-52
2023/06/17 01:43:57;;;;;;;5.18;2.30;;;14.80;93.70;;;;;;5053034;28;20053;-55
2023/06/17 01:46:26;;;;;;;4.95;2.40;;;14.80;93.80;;;;;;5053108;28;20021;-54
2023/06/17 01:48:54;;;;;;;4.20;2.58;;;14.80;94.00;;;;;;5054697;28;20389;-54
2023/06/17 01:51:20;;;;;;;6.47;2.28;;;14.80;94.10;;;;;;5051645;28;20029;-54
2023/06/17 01:53:46;;;;;;;3.58;1.95;;;14.80;94.30;;;;;;5054408;28;20040;-54
2023/06/17 01:56:12;;;;;;;4.80;2.45;;;14.70;94.20;;;;;;5054681;28;20087;-54
2023/06/17 01:58:38;;;;;;;3.85;2.30;;;14.70;94.50;;;;;;5052955;28;20025;-54
2023/06/17 02:01:04;;;;;;;4.88;2.20;;;14.70;94.60;;;;;;5052531;28;20025;-54
2023/06/17 02:03:30;;;;;;;4.45;2.17;;;14.60;94.80;;;;;;5054200;28;20389;-51
2023/06/17 02:05:56;;;;;;;4.00;2.40;;;14.60;94.80;;;;;;5053369;28;20025;-50
2023/06/17 02:08:23;;;;;;;3.95;2.03;;;14.50;95.00;;;;;;5053901;28;20032;-53
2023/06/17 02:10:49;;;;;;;4.45;2.20;;;14.50;95.30;;;;;;5052166;28;20116;-52
2023/06/17 02:13:14;;;;;;;4.85;2.60;;;14.50;95.60;;;;;;5053725;28;20029;-49
2023/06/17 02:15:42;;;;;;;7.85;2.70;;;14.40;95.70;;;;;;5052444;28;20029;-49
2023/06/17 02:18:12;;;;;;;4.03;1.83;;;14.40;95.70;;;;;;5052079;28;20163;-50
2023/06/17 02:20:38;;;;;;;5.15;2.40;;;14.30;95.80;;;;;;5053502;28;20108;-54
2023/06/17 02:23:04;;;;;;;5.18;2.30;;;14.30;96.00;;;;;;5053217;28;20053;-49
2023/06/17 02:25:29;;;;;;;5.55;2.42;;;14.30;96.00;;;;;;5053482;28;20063;-51
2023/06/17 02:27:55;;;;;;;4.30;2.50;;;14.30;96.20;;;;;;5052782;28;20500;-51
2023/06/17 02:30:23;;;;;;;5.40;2.40;;;14.20;96.40;;;;;;5051917;28;20060;-49
2023/06/17 02:32:50;;;;;;;4.80;2.28;;;14.30;96.60;;;;;;5052100;28;20039;-50
2023/06/17 02:35:15;;;;;;;4.38;2.40;;;14.20;96.70;;;;;;5053035;28;20025;-49
2023/06/17 02:37:43;;;;;;;4.43;2.28;;;14.20;96.70;;;;;;5051697;28;20063;-50
2023/06/17 02:40:09;;;;;;;4.80;2.60;;;14.20;96.80;;;;;;5051693;28;20049;-52
2023/06/17 02:42:36;;;;;;;4.65;2.67;;;14.20;96.90;;;;;;5051556;28;20025;-50
2023/06/17 02:45:02;;;;;;;4.40;2.28;;;14.20;97.00;;;;;;5051667;28;20025;-52
2023/06/17 02:47:28;;;;;;;3.50;2.10;;;14.10;97.10;;;;;;5051418;28;20029;-53
2023/06/17 02:49:54;;;;;;;4.18;2.22;;;14.10;97.20;;;;;;5052924;28;20112;-50
2023/06/17 02:52:21;;;;;;;5.13;2.70;;;14.00;97.30;;;;;;5051040;28;20037;-50
2023/06/17 02:54:47;;;;;;;5.00;2.47;;;14.00;97.50;;;;;;5051424;28;20033;-50
2023/06/17 02:57:18;;;;;;;6.80;2.80;;;14.00;97.70;;;;;;5051390;28;20032;-49
2023/06/17 02:59:43;;;;;;;3.70;2.22;;;14.00;97.80;;;;;;5051260;28;20021;-52
2023/06/17 03:02:10;;;;;;;4.55;2.38;;;14.00;98.00;;;;;;5051796;28;20104;-51
2023/06/17 03:04:36;;;;;;;3.65;2.20;;;14.00;98.20;;;;;;5051271;28;20079;-49
2023/06/17 03:07:04;;;;;;;4.20;2.38;;;13.90;98.20;;;;;;5050992;28;20024;-53
2023/06/17 03:09:30;;;;;;;3.72;2.40;;;13.90;98.30;;;;;;5051116;28;20048;-49
2023/06/17 03:11:57;;;;;;;4.50;2.38;;;13.90;98.30;;;;;;5050955;28;20497;-53
2023/06/17 03:14:24;;;;;;;5.82;2.53;;;13.90;98.30;;;;;;5052511;28;20076;-52
2023/06/17 03:16:50;;;;;;;5.93;2.90;;;13.90;98.70;;;;;;5050908;28;20363;-51
2023/06/17 03:19:17;;;;;;;4.30;2.50;;;13.90;98.60;;;;;;5051401;28;20033;-49
2023/06/17 03:21:45;;;;;;;5.38;2.47;;;13.90;98.60;;;;;;5050649;28;20401;-49
2023/06/17 03:24:11;;;;;;;3.92;2.30;;;14.00;98.40;;;;;;5050764;28;20029;-52
2023/06/17 03:26:37;;;;;;;5.55;2.67;;;14.10;98.30;;;;;;5050915;28;20035;-54
2023/06/17 03:29:04;;;;;;;5.43;2.42;;;14.00;98.40;;;;;;5051025;28;20033;-54
2023/06/17 03:31:30;;;;;;;5.68;2.28;;;13.90;98.40;;;;;;5050629;28;20033;-52
2023/06/17 03:33:56;;;;;;;3.67;2.35;;;13.80;98.50;;;;;;5050754;28;20035;-53
2023/06/17 03:36:25;;;;;;;4.18;2.63;;;13.70;98.70;;;;;;5050815;28;20033;-50
2023/06/17 03:38:52;;;;;;;5.53;2.40;;;13.80;98.80;;;;;;5050161;28;20036;-52
2023/06/17 03:41:18;;;;;;;5.10;2.65;;;13.80;98.50;;;;;;5050157;28;20075;-55
2023/06/17 03:43:43;;;;;;;3.30;2.17;;;13.80;98.80;;;;;;5050513;28;20068;-52
2023/06/17 03:46:10;;;;;;;4.35;2.55;;;13.90;98.50;;;;;;5051054;28;20543;-53
2023/06/17 03:48:36;;;;;;;4.72;2.55;;;13.90;98.60;;;;;;5034052;28;20036;-51
2023/06/17 03:51:02;;;;;;;6.50;2.70;;;13.90;98.60;;;;;;5050404;28;20129;-49
2023/06/17 03:53:29;;;;;;;4.05;2.55;;;13.80;98.70;;;;;;5050249;28;20029;-49
2023/06/17 03:55:55;;;;;;;5.40;2.90;;;13.80;99.10;;;;;;5050430;28;20039;-49
2023/06/17 03:58:22;;;;;;;4.10;2.42;;;13.70;99.60;;;;;;5050284;28;20078;-48
2023/06/17 04:00:48;;;;;;;4.38;2.72;;;13.60;99.90;;;;;;5051473;28;20536;-52
2023/06/17 04:03:15;;;;;;;4.32;2.90;;;13.60;99.90;;;;;;5050074;28;20053;-50
2023/06/17 04:05:42;;;;;;;5.40;3.00;;;13.60;99.90;;;;;;5051372;28;20484;-53
2023/06/17 04:08:08;;;;;;;5.20;2.80;;;13.50;99.90;;;;;;5050339;28;20033;-52
2023/06/17 04:10:34;;;;;;;5.50;2.78;;;13.50;99.90;;;;;;5050163;28;20090;-49
2023/06/17 04:13:00;;;;;;;7.65;3.20;;;13.50;99.90;;;;;;5050572;28;20040;-52
2023/06/17 04:15:26;;;;;;;5.78;2.63;;;13.50;99.90;;;;;;5055698;28;20041;-50
2023/06/17 04:17:51;;;;;;;4.60;2.85;;;13.50;99.90;;;;;;5054042;28;20033;-53
2023/06/17 04:20:17;;;;;;;5.03;2.47;;;13.50;99.90;;;;;;5054277;28;20025;-51
2023/06/17 04:22:44;;;;;;;5.20;3.13;;;13.60;99.90;;;;;;5054214;28;20033;-51
2023/06/17 04:25:15;;;;;;;4.22;2.70;;;13.60;99.90;;;;;;5054126;28;20143;-52
2023/06/17 04:27:44;;;;;;;6.72;3.05;;;13.60;99.90;;;;;;5053993;28;20033;-48
2023/06/17 04:30:10;;;;;;;6.90;3.20;;;13.60;99.90;;;;;;5054181;28;20029;-50
2023/06/17 04:32:38;;;;;;;5.70;3.25;;;13.80;99.90;;;;;;5054176;28;20029;-53
2023/06/17 04:35:07;;;;;;;6.65;3.25;;;13.80;99.90;;;;;;5053968;28;20108;-54
2023/06/17 04:37:40;;;;;;;5.15;2.83;;;13.90;99.90;;;;;;5053916;28;20033;-53
2023/06/17 04:40:11;;;;;;;4.53;2.80;;;13.90;99.90;;;;;;5054045;28;20025;-50
2023/06/17 04:42:40;;;;;;;6.50;2.95;;;13.90;99.90;;;;;;5053840;28;20025;-54
2023/06/17 04:45:08;;;;;;;5.07;3.10;;;14.00;99.90;;;;;;5054141;28;20112;-49
2023/06/17 04:47:35;;;;;;;4.43;2.70;;;14.10;99.90;;;;;;5054209;28;20087;-50
2023/06/17 04:50:02;;;;;;;5.45;2.90;;;14.10;99.90;;;;;;5053902;28;20029;-52
2023/06/17 04:52:29;;;;;;;6.35;3.28;;;14.20;99.90;;;;;;5053905;28;20101;-49
2023/06/17 04:54:56;;;;;;;6.00;3.13;;;14.30;99.90;;;;;;5054088;28;20443;-53
2023/06/17 04:57:22;;;;;;;5.60;3.05;;;14.30;99.90;;;;;;5037247;28;20033;-54
2023/06/17 04:59:50;;;;;;;5.07;3.00;;;14.50;99.90;;;;;;5054798;28;20203;-54
2023/06/17 05:02:16;;;;;;;5.38;3.17;;;14.60;99.90;;;;;;5053293;28;20029;-53
2023/06/17 05:04:43;;;;;;;5.20;3.13;;;14.70;99.90;;;;;;5053642;28;20461;-50
2023/06/17 05:07:10;;;;;;;6.35;3.50;;;14.70;99.90;;;;;;5053061;28;20033;-53
2023/06/17 05:09:38;;;;;;;4.93;2.93;;;14.80;99.90;;;;;;5053173;28;20079;-53
2023/06/17 05:12:04;;;;;;;5.47;3.65;;;14.90;99.90;;;;;;5054473;28;20432;-51
2023/06/17 05:14:30;;;;;;;5.53;3.10;;;15.00;99.90;;;;;;5053441;28;20112;-50
2023/06/17 05:16:56;;;;;;;4.90;2.97;;;15.10;99.90;;;;;;5053294;28;20523;-51
2023/06/17 05:19:21;;;;;;;6.43;3.15;;;15.20;99.90;;;;;;5052972;28;20062;-51
2023/06/17 05:21:47;;;;;;;5.82;3.00;;;15.30;99.90;;;;;;5052978;28;20025;-52
2023/06/17 05:24:17;;;;;;;4.20;2.70;;;15.50;99.90;;;;;;5052789;28;20051;-53
2023/06/17 05:26:43;;;;;;;6.38;3.17;;;15.60;99.90;;;;;;5052879;28;20426;-52
2023/06/17 05:29:09;;;;;;;6.07;3.83;;;15.80;99.90;;;;;;5054078;28;20501;-52
2023/06/17 05:31:37;;;;;;;7.47;3.97;;;15.90;99.90;;;;;;5052908;28;20076;-52
2023/06/17 05:34:04;;;;;;;5.43;3.40;;;16.10;99.90;;;;;;5052826;28;20075;-52
2023/06/17 05:36:29;;;;;;;8.15;3.60;;;16.20;99.90;;;;;;5054248;28;20052;-49
2023/06/17 05:38:55;;;;;;;5.22;3.20;;;16.30;99.90;;;;;;5053922;28;20029;-52
2023/06/17 05:41:22;;;;;;;7.50;4.20;;;16.50;99.70;;;;;;5052451;28;20029;-53
2023/06/17 05:43:48;;;;;;;7.80;4.32;;;16.60;98.90;;;;;;5052370;28;20055;-54
2023/06/17 05:46:14;;;;;;;7.63;4.13;;;16.70;98.50;;;;;;5052649;28;20052;-52
2023/06/17 05:48:40;;;;;;;7.50;4.07;;;16.90;98.30;;;;;;5052153;28;20498;-52
2023/06/17 05:51:07;;;;;;;9.20;4.57;;;17.00;98.70;;;;;;5052224;28;20059;-53
2023/06/17 05:53:32;;;;;;;8.10;5.15;;;17.20;98.10;;;;;;5052274;28;20033;-52
2023/06/17 05:55:58;;;;;;;7.97;4.57;;;17.20;97.20;;;;;;5052109;28;20049;-52
2023/06/17 05:58:24;;;;;;;8.65;4.45;;;17.30;96.90;;;;;;5053664;28;20025;-53
2023/06/17 06:00:54;;;;;;;6.65;3.90;;;17.40;96.90;;;;;;5051948;28;20067;-49
2023/06/17 06:03:20;;;;;;;7.32;4.22;;;17.50;96.80;;;;;;5053428;28;20017;-53
2023/06/17 06:05:46;;;;;;;7.13;3.78;;;17.60;96.50;;;;;;5052263;28;20024;-51
2023/06/17 06:08:11;;;;;;;5.40;3.40;;;17.80;96.40;;;;;;5051701;28;20060;-55
2023/06/17 06:10:38;;;;;;;5.85;3.92;;;18.00;96.40;;;;;;5051663;28;20033;-51
2023/06/17 06:13:03;;;;;;;7.22;4.03;;;18.10;95.50;;;;;;5053426;28;20102;-51
2023/06/17 06:15:30;;;;;;;7.57;4.03;;;18.20;95.20;;;;;;5051823;28;20531;-54
2023/06/17 06:17:55;;;;;;;7.50;3.97;;;18.30;95.50;;;;;;5051827;28;20025;-51
2023/06/17 06:20:21;;;;;;;8.00;4.43;;;18.40;95.10;;;;;;5051899;28;20033;-54
2023/06/17 06:22:47;;;;;;;7.82;4.30;;;18.50;95.20;;;;;;5052046;28;20029;-55
2023/06/17 06:25:13;;;;;;;7.80;4.18;;;18.60;95.00;;;;;;5051617;28;20037;-51
2023/06/17 06:27:39;;;;;;;6.90;3.95;;;18.70;94.70;;;;;;5051414;28;20040;-54
2023/06/17 06:30:06;;;;;;;7.15;4.20;;;18.70;94.50;;;;;;5051601;28;20037;-55
2023/06/17 06:32:37;;;;;;;6.55;4.07;;;18.90;93.80;;;;;;5052000;28;20029;-53
2023/06/17 06:35:04;;;;;;;7.72;4.45;;;19.00;93.70;;;;;;5051691;28;20029;-53
2023/06/17 06:37:30;;;;;;;7.53;4.20;;;19.00;93.60;;;;;;5050899;28;20116;-52
2023/06/17 06:39:56;;;;;;;8.52;4.47;;;19.20;93.80;;;;;;5051392;28;20035;-54
2023/06/17 06:42:23;;;;;;;6.70;4.00;;;19.30;93.00;;;;;;5051106;28;20021;-53
2023/06/17 06:45:05;;;;;;;8.02;4.50;;;19.40;92.80;;;;;;5051574;28;20025;-54
2023/06/17 06:47:30;;;;;;;9.38;5.25;;;19.70;92.10;;;;;;5051342;28;20154;-54
2023/06/17 06:49:56;;;;;;;12.25;4.55;;;19.90;91.60;;;;;;5051874;28;20037;-54
2023/06/17 06:52:22;;;;;;;10.88;4.45;;;20.00;92.40;;;;;;5051426;28;20025;-53
2023/06/17 06:54:48;;;;;;;9.20;4.53;;;20.20;91.20;;;;;;5050953;28;20029;-55
2023/06/17 06:57:14;;;;;;;10.43;4.32;;;20.50;90.30;;;;;;5050935;28;20477;-53
2023/06/17 06:59:40;;;;;;;7.05;3.67;;;20.40;90.30;;;;;;5052877;28;20029;-54
2023/06/17 07:02:05;;;;;;;8.93;4.22;;;20.50;90.40;;;;;;5051000;28;20024;-55
2023/06/17 07:04:31;;;;;;;10.45;5.22;;;20.50;90.20;;;;;;5051486;28;20389;-54
2023/06/17 07:07:00;;;;;;;9.07;4.30;;;20.60;90.40;;;;;;5050975;28;20029;-54
2023/06/17 07:09:31;;;;;;;11.15;4.88;;;20.70;89.40;;;;;;5051216;28;20503;-54
2023/06/17 07:11:57;;;;;;;8.65;4.60;;;20.70;87.40;;;;;;5051632;28;20068;-55
2023/06/17 07:14:23;;;;;;;12.50;4.38;;;20.80;87.30;;;;;;5051395;28;20025;-54
2023/06/17 07:16:49;;;;;;;8.45;4.25;;;20.80;87.70;;;;;;5051139;28;20078;-54
2023/06/17 07:19:15;;;;;;;11.68;4.93;;;20.90;89.10;;;;;;5051137;28;20444;-51
2023/06/17 07:21:41;;;;;;;11.32;4.78;;;21.10;84.00;;;;;;5052071;28;20404;-53
2023/06/17 07:24:06;;;;;;;8.77;4.38;;;21.20;84.30;;;;;;5050692;28;20025;-53
2023/06/17 07:26:32;;;;;;;9.02;4.80;;;21.20;82.20;;;;;;5052135;28;20087;-54
2023/06/17 07:29:01;;;;;;;8.93;4.40;;;21.40;82.30;;;;;;5051129;28;20025;-53
2023/06/17 07:31:28;;;;;;;9.67;4.73;;;21.60;81.40;;;;;;5050609;28;20052;-53
2023/06/17 07:33:56;;;;;;;9.65;4.65;;;21.90;79.50;;;;;;5050937;28;20435;-53
2023/06/17 07:36:22;;;;;;;9.57;5.03;;;21.90;78.70;;;;;;5051044;28;20132;-54
2023/06/17 07:38:47;;;;;;;11.27;5.03;;;22.00;79.30;;;;;;5050534;28;20123;-54
2023/06/17 07:41:13;;;;;;;9.05;5.05;;;22.10;78.70;;;;;;5051813;28;20029;-55
2023/06/17 07:43:39;;;;;;;10.35;5.15;;;22.20;79.20;;;;;;5052024;28;20052;-52
2023/06/17 07:46:04;;;;;;;16.52;9.73;;;22.40;77.40;;;;;;5051928;28;20067;-54
2023/06/17 07:48:31;;;;;;;10.55;5.05;;;22.60;76.40;;;;;;5049378;28;20090;-53
2023/06/17 07:50:57;;;;;;;9.55;4.70;;;22.70;77.20;;;;;;5051443;28;20037;-53
2023/06/17 07:53:23;;;;;;;9.30;4.50;;;22.80;75.10;;;;;;5051880;28;20021;-54
2023/06/17 07:55:49;;;;;;;6.15;3.47;;;22.70;76.00;;;;;;5051862;28;20481;-54
2023/06/17 07:58:15;;;;;;;9.43;3.55;;;22.60;72.20;;;;;;5052017;28;20033;-54
2023/06/17 08:00:40;;;;;;;7.28;3.72;;;22.60;72.70;;;;;;5051906;28;20028;-54
2023/06/17 08:03:06;;;;;;;12.00;5.88;;;22.60;73.40;;;;;;5052181;28;20029;-54
2023/06/17 08:05:32;;;;;;;8.55;3.70;;;22.70;73.70;;;;;;5051745;28;20024;-52
2023/06/17 08:07:58;;;;;;;9.35;3.00;;;22.70;70.90;;;;;;5051252;28;20124;-53
2023/06/17 08:10:23;;;;;;;9.57;3.95;;;22.70;72.30;;;;;;5051360;28;20032;-52
2023/06/17 08:12:49;;;;;;;9.98;3.40;;;22.70;73.00;;;;;;5051390;28;20436;-53
2023/06/17 08:15:15;;;;;;;9.82;5.07;;;22.80;71.40;;;;;;5051249;28;20041;-53
2023/06/17 08:17:42;;;;;;;8.40;3.95;;;23.00;70.80;;;;;;5050882;28;20119;-50
2023/06/17 08:20:09;;;;;;;5.18;3.25;;;23.10;70.80;;;;;;5051438;28;20087;-52
2023/06/17 08:22:36;;;;;;;8.10;3.50;;;23.10;70.80;;;;;;5051195;28;20025;-55
2023/06/17 08:25:03;;;;;;;8.70;4.00;;;23.20;69.00;;;;;;5051411;28;20075;-54
2023/06/17 08:27:28;;;;;;;7.57;4.10;;;23.30;69.00;;;;;;5051208;28;20033;-52
2023/06/17 08:29:54;;;;;;;8.85;4.20;;;23.40;69.10;;;;;;5051250;28;20025;-54
2023/06/17 08:32:20;;;;;;;4.82;3.00;;;23.60;68.30;;;;;;5051083;28;20493;-54
2023/06/17 08:34:46;;;;;;;6.20;3.13;;;23.50;68.20;;;;;;5051263;28;20040;-52
2023/06/17 08:37:11;;;;;;;6.85;3.33;;;23.50;68.30;;;;;;5050959;28;20509;-53
2023/06/17 08:39:39;;;;;;;5.50;3.10;;;23.50;67.50;;;;;;5051249;28;20035;-55
2023/06/17 08:42:09;;;;;;;6.25;2.85;;;23.50;68.50;;;;;;5051106;28;20047;-53
2023/06/17 08:44:40;;;;;;;8.05;3.95;;;23.60;67.60;;;;;;5051335;28;20029;-54
2023/06/17 08:47:06;;;;;;;8.65;4.40;;;23.70;67.10;;;;;;5050881;28;20030;-53
2023/06/17 08:49:33;;;;;;;5.57;3.03;;;23.90;66.50;;;;;;5051134;28;20033;-53
2023/06/17 08:52:00;;;;;;;6.30;3.60;;;24.10;66.30;;;;;;5051035;28;20033;-53
2023/06/17 08:54:30;;;;;;;7.53;3.10;;;23.90;65.30;;;;;;5050803;28;20374;-54
2023/06/17 08:56:56;;;;;;;8.10;3.53;;;23.90;65.70;;;;;;5051163;28;20443;-54
2023/06/17 08:59:22;;;;;;;5.72;2.92;;;24.00;64.20;;;;;;5051584;28;20063;-54
2023/06/17 09:01:51;;;;;;;4.53;2.97;;;24.20;64.70;;;;;;5054439;28;20024;-52
2023/06/17 09:04:19;;;;;;;8.30;3.60;;;24.30;65.00;;;;;;5054580;28;20040;-53
2023/06/17 09:06:47;;;;;;;5.60;3.03;;;24.40;64.50;;;;;;5054314;28;20137;-54
2023/06/17 09:09:12;;;;;;;4.72;2.58;;;24.40;63.10;;;;;;5054621;28;20094;-54
2023/06/17 09:11:38;;;;;;;3.75;2.30;;;24.40;63.40;;;;;;5054311;28;20033;-53
2023/06/17 09:14:04;;;;;;;6.10;2.50;;;24.50;63.60;;;;;;5054244;28;20288;-54
2023/06/17 09:16:31;;;;;;;4.50;2.53;;;24.50;64.70;;;;;;5054315;28;20428;-55
2023/06/17 09:18:58;;;;;;;5.03;2.60;;;24.60;64.20;;;;;;5053865;28;20029;-55
2023/06/17 09:21:25;;;;;;;5.80;2.75;;;24.70;63.40;;;;;;5053692;28;20024;-56
2023/06/17 09:23:56;;;;;;;5.47;2.35;;;24.80;64.70;;;;;;5053977;28;20025;-55
2023/06/17 09:26:29;;;;;;;4.60;2.90;;;24.90;64.60;;;;;;5054026;28;20501;-51
2023/06/17 09:29:03;;;;;;;6.10;2.90;;;25.00;62.70;;;;;;5054012;28;20154;-55
2023/06/17 09:31:31;;;;;;;4.10;2.47;;;25.00;63.80;;;;;;5053854;28;20029;-51
2023/06/17 09:33:58;;;;;;;3.97;2.60;;;25.00;64.40;;;;;;5054065;28;20037;-52
2023/06/17 09:36:25;;;;;;;6.18;3.42;;;25.10;64.40;;;;;;5053884;28;20056;-50
2023/06/17 09:38:51;;;;;;;5.22;3.05;;;25.00;62.70;;;;;;5053637;28;20110;-55
2023/06/17 09:41:20;;;;;;;5.25;3.00;;;25.10;63.80;;;;;;5053701;28;20029;-54
2023/06/17 09:43:52;;;;;;;;;;;24.90;62.50;;;;;;5054474;28;20263;-54
2023/06/17 09:46:25;;;;;;;4.20;2.50;;;25.00;64.80;;;;;;5053753;28;19913;-53
2023/06/17 09:48:52;;;;;;;5.47;2.90;;;25.00;63.80;;;;;;5053834;28;20036;-50
2023/06/17 09:51:21;;;;;;;4.95;2.78;;;25.10;64.00;;;;;;5053509;28;20131;-51
2023/06/17 09:53:52;;;;;;;5.57;3.05;;;25.30;64.00;;;;;;5054083;28;20036;-52
2023/06/17 09:56:19;;;;;;;5.95;2.92;;;25.40;63.40;;;;;;5053819;28;20082;-53
2023/06/17 09:58:45;;;;;;;5.05;3.60;;;25.40;62.90;;;;;;5053344;28;20029;-49
2023/06/17 10:01:13;;;;;;;7.22;4.07;;;25.50;63.30;;;;;;5053150;28;20032;-54
2023/06/17 10:03:42;;;;;;;6.72;3.30;;;25.70;63.40;;;;;;5053299;28;20059;-55
2023/06/17 10:06:12;;;;;;;5.50;3.03;;;26.00;61.90;;;;;;5052764;28;20386;-54
2023/06/17 10:08:41;;;;;;;5.47;2.97;;;25.90;61.80;;;;;;5053135;28;20028;-50
2023/06/17 10:11:09;;;;;;;5.82;3.22;;;25.80;62.40;;;;;;5051643;28;20040;-53
2023/06/17 10:13:38;;;;;;;5.38;3.45;;;25.60;63.10;;;;;;5053147;28;20397;-50
2023/06/17 10:16:15;;;;;;;5.68;3.55;;;25.70;63.50;;;;;;5052767;28;20056;-54
2023/06/17 10:18:44;;;;;;;4.57;2.60;;;25.90;63.50;;;;;;5052430;28;20033;-54
2023/06/17 10:21:12;;;;;;;5.55;2.70;;;25.90;62.50;;;;;;5052529;28;20029;-49
2023/06/17 10:23:38;;;;;;;5.28;3.10;;;25.90;63.30;;;;;;5051016;28;20029;-49
2023/06/17 10:26:06;;;;;;;5.10;2.90;;;26.00;61.60;;;;;;5052688;28;20032;-53
2023/06/17 10:28:53;;;;;;;5.72;2.92;;;26.10;61.50;;;;;;5052134;28;20128;-54
2023/06/17 10:31:30;;;;;;;5.00;3.00;;;26.10;60.70;;;;;;5052095;28;20032;-53
2023/06/17 10:33:57;;;;;;;5.40;2.60;;;26.10;59.70;;;;;;5052630;28;20440;-54
2023/06/17 10:36:24;;;;;;;4.97;2.95;;;26.10;59.90;;;;;;5052669;28;20052;-52
2023/06/17 10:39:04;;;;;;;5.25;2.92;;;26.20;59.40;;;;;;5052601;28;20414;-54
2023/06/17 10:41:42;;;;;;;5.15;2.75;;;26.20;59.20;;;;;;5052169;28;20067;-54
2023/06/17 10:44:35;;;;;;;5.45;3.25;;;26.20;59.90;;;;;;5052488;28;20063;-53
2023/06/17 10:47:02;;;;;;;6.05;2.70;;;26.60;58.30;;;;;;5052955;28;20024;-54
2023/06/17 10:49:42;;;;;;;5.40;2.60;;;26.70;57.90;;;;;;5052557;28;20029;-55
2023/06/17 10:52:16;;;;;;;5.47;2.92;;;26.70;58.00;;;;;;5051984;28;20363;-52
2023/06/17 10:54:55;;;;;;;4.60;2.60;;;26.50;58.30;;;;;;5052430;28;20044;-53
2023/06/17 10:57:33;;;;;;;7.43;4.32;;;26.50;59.90;;;;;;5050979;28;20033;-55
2023/06/17 11:00:00;;;;;;;3.78;2.50;;;26.50;59.40;;;;;;5051932;28;20433;-54
2023/06/17 11:02:26;;;;;;;4.97;2.50;;;26.50;59.20;;;;;;5052036;28;20036;-55
2023/06/17 11:04:53;;;;;;;4.85;3.08;;;26.60;58.00;;;;;;5050873;28;20029;-55
2023/06/17 11:07:26;;;;;;;4.47;2.63;;;26.70;58.90;;;;;;5051985;28;20025;-53
2023/06/17 11:09:51;;;;;;;4.20;2.53;;;26.80;58.50;;;;;;5052179;28;20021;-53
2023/06/17 11:12:17;;;;;;;6.53;2.50;;;26.80;56.50;;;;;;5051606;28;20493;-54
2023/06/17 11:14:43;;;;;;;4.72;3.00;;;26.60;55.80;;;;;;5052092;28;20047;-54
2023/06/17 11:17:09;;;;;;;3.33;2.35;;;26.60;56.10;;;;;;5051575;28;20138;-54
2023/06/17 11:19:35;;;;;;;9.52;4.72;;;26.60;55.80;;;;;;5051760;28;20040;-53
2023/06/17 11:22:03;;;;;;;6.18;2.42;;;26.70;55.50;;;;;;5050106;28;20124;-55
2023/06/17 11:24:30;;;;;;;;;;;26.60;55.90;;;;;;5052287;28;20033;-53
2023/06/17 11:26:57;;;;;;;4.75;2.60;;;26.50;56.60;;;;;;5051402;28;19938;-52
2023/06/17 11:29:25;;;;;;;4.47;3.00;;;26.50;56.60;;;;;;5051580;28;20033;-52
2023/06/17 11:31:52;;;;;;;2.75;2.10;;;26.50;56.90;;;;;;5051461;28;20029;-54
2023/06/17 11:34:19;;;;;;;4.38;2.88;;;26.60;57.60;;;;;;5051271;28;20481;-53
2023/06/17 11:36:52;;;;;;;6.75;3.55;;;26.80;57.10;;;;;;5051159;28;20075;-52
2023/06/17 11:39:22;;;;;;;4.43;2.80;;;26.80;56.10;;;;;;5051364;28;20032;-54
2023/06/17 11:41:50;;;;;;;5.00;2.58;;;26.80;56.70;;;;;;5051267;28;20078;-55
2023/06/17 11:44:16;;;;;;;4.03;2.67;;;26.80;57.30;;;;;;5051435;28;20379;-52
2023/06/17 11:46:42;;;;;;;4.68;2.83;;;26.90;56.90;;;;;;5051312;28;20478;-55
2023/06/17 11:49:08;;;;;;;4.30;2.60;;;26.90;55.80;;;;;;5051328;28;20032;-53
2023/06/17 11:51:36;;;;;;;4.22;2.60;;;26.80;56.80;;;;;;5051219;28;20477;-53
2023/06/17 11:54:09;;;;;;;14.05;8.18;;;26.80;57.00;;;;;;5051666;28;20037;-55
2023/06/17 11:56:35;;;;;;;5.78;3.45;;;26.80;54.80;;;;;;5050967;28;20028;-54
2023/06/17 11:59:01;;;;;;;3.83;2.45;;;26.80;54.50;;;;;;5051613;28;20035;-52
2023/06/17 12:01:27;;;;;;;8.18;4.10;;;26.80;55.90;;;;;;5050974;28;20021;-55
2023/06/17 12:03:55;;;;;;;4.50;2.80;;;26.90;56.90;;;;;;5051322;28;20390;-53
2023/06/17 12:06:22;;;;;;;5.13;2.80;;;27.10;56.30;;;;;;5051196;28;20397;-54
2023/06/17 12:09:03;;;;;;;4.38;2.63;;;27.10;56.20;;;;;;5051134;28;20462;-53
2023/06/17 12:11:35;;;;;;;4.43;2.97;;;27.10;55.20;;;;;;5051128;28;20032;-54
2023/06/17 12:14:10;;;;;;;4.22;2.80;;;27.00;55.40;;;;;;5051432;28;20432;-54
2023/06/17 12:16:38;;;;;;;5.10;3.25;;;27.00;54.00;;;;;;5051319;28;20029;-54
2023/06/17 12:19:07;;;;;;;3.33;2.25;;;26.90;54.70;;;;;;5050803;28;20036;-54
2023/06/17 12:21:35;;;;;;;3.55;2.60;;;26.80;54.90;;;;;;5050845;28;20403;-54
2023/06/17 12:24:02;;;;;;;4.07;2.58;;;26.70;54.20;;;;;;5051375;28;20102;-52
2023/06/17 12:26:28;;;;;;;4.30;2.47;;;26.90;55.20;;;;;;5050978;28;20366;-53
2023/06/17 12:28:54;;;;;;;4.00;2.60;;;27.20;55.00;;;;;;5051011;28;20028;-52
2023/06/17 12:31:20;;;;;;;5.25;2.70;;;27.20;54.40;;;;;;5050796;28;20033;-54
2023/06/17 12:33:46;;;;;;;4.75;2.83;;;27.20;55.30;;;;;;5050883;28;20040;-53
2023/06/17 12:36:13;;;;;;;4.78;2.78;;;27.10;54.90;;;;;;5055108;28;20482;-52
2023/06/17 12:38:39;;;;;;;4.47;2.55;;;27.10;53.90;;;;;;5055263;28;20033;-50
2023/06/17 12:41:06;;;;;;;5.00;2.70;;;27.20;52.70;;;;;;5054705;28;20025;-51
2023/06/17 12:43:32;;;;;;;4.07;2.53;;;27.20;53.20;;;;;;5054883;28;20083;-53
2023/06/17 12:45:59;;;;;;;4.60;3.22;;;27.10;53.90;;;;;;5054871;28;20021;-54
2023/06/17 12:48:29;;;;;;;4.83;2.63;;;27.40;53.20;;;;;;5054556;28;20112;-53
2023/06/17 12:50:55;;;;;;;4.18;2.90;;;27.60;52.50;;;;;;5053450;28;20040;-51